KDKK/DKK METAR and TAF weather

Enter ICAO airport designator
Station Type Date Time Source
KDKK METAR 2022/11/30 22:53 UTC NOAA

KDKK 302253Z AUTO 25016G33KT 9SM BKN038 OVC047 03/M06 A2989 RMK AO2 PK WND 26042/2233 SNE49 SLP126 P0000 T00281056


Station Type Date Time Source
KDKK Decoded METAR 2022/11/30 22:53 UTC NOAA

CHAUTAUQUA COUNTY/DUNKIRK, NY, United States (KDKK) 42-30N 079-17W 202M
Nov 30, 2022 - 05:53 PM EST / 2022.11.30 2253 UTC
Wind: from the WSW (250 degrees) at 18 MPH (16 KT) gusting to 38 MPH (33 KT):0
Visibility: 9 mile(s):0
Sky conditions: overcast
Precipitation last hour: A trace
Temperature: 37.0 F (2.8 C)
Dew Point: 21.9 F (-5.6 C)
Relative Humidity: 53%
Pressure (altimeter): 29.89 in. Hg (1012 hPa)
ob: KDKK 302253Z AUTO 25016G33KT 9SM BKN038 OVC047 03/M06 A2989 RMK AO2 PK WND 26042/2233 SNE49 SLP126 P0000 T00281056
cycle: 23

Station Type Date Time Source
KDKK TAF UTC NOAA

Error!

Example: see airport list